createdAt,value
2023-05-12T00:01:25.449Z,64.94
2023-05-12T00:03:54.045Z,65.80
2023-05-12T00:06:21.642Z,66.21
2023-05-12T00:08:48.610Z,66.14
2023-05-12T00:11:15.409Z,66.31
2023-05-12T00:13:42.425Z,66.31
2023-05-12T00:16:09.344Z,67.02
2023-05-12T00:18:36.167Z,67.29
2023-05-12T00:21:02.909Z,67.33
2023-05-12T00:23:29.642Z,68.04
2023-05-12T00:25:56.380Z,67.84
2023-05-12T00:28:23.184Z,67.83
2023-05-12T00:30:49.936Z,67.77
2023-05-12T00:33:17.416Z,68.27
2023-05-12T00:35:45.754Z,68.34
2023-05-12T00:38:13.583Z,68.63
2023-05-12T00:40:41.379Z,68.72
2023-05-12T00:43:08.786Z,68.91
2023-05-12T00:45:36.082Z,69.45
2023-05-12T00:48:04.514Z,69.30
2023-05-12T00:50:31.512Z,69.64
2023-05-12T00:53:01.107Z,69.93
2023-05-12T00:55:29.610Z,70.12
2023-05-12T00:57:56.700Z,70.31
2023-05-12T01:00:23.645Z,70.09
2023-05-12T01:02:50.704Z,70.36
2023-05-12T01:05:18.376Z,70.50
2023-05-12T01:07:46.913Z,71.05
2023-05-12T01:10:22.268Z,70.82
2023-05-12T01:12:49.215Z,70.77
2023-05-12T01:15:18.159Z,70.87
2023-05-12T01:17:50.875Z,70.44
2023-05-12T01:20:20.031Z,70.33
2023-05-12T01:22:49.269Z,70.95
2023-05-12T01:25:17.645Z,69.99
2023-05-12T01:27:45.997Z,69.82
2023-05-12T01:30:17.440Z,69.52
2023-05-12T01:32:44.957Z,69.23
2023-05-12T01:35:12.028Z,69.27
2023-05-12T01:37:44.071Z,69.29
2023-05-12T01:40:11.158Z,69.54
2023-05-12T01:42:40.353Z,69.48
2023-05-12T01:45:09.256Z,69.40
2023-05-12T01:47:36.383Z,69.03
2023-05-12T01:50:07.546Z,69.28
2023-05-12T01:52:34.381Z,69.51
2023-05-12T01:55:01.927Z,69.96
2023-05-12T01:57:33.727Z,69.85
2023-05-12T02:00:01.408Z,70.17
2023-05-12T02:02:31.430Z,69.96
2023-05-12T02:04:58.337Z,69.78
2023-05-12T02:07:25.086Z,69.91
2023-05-12T02:09:52.172Z,70.07
2023-05-12T02:12:19.388Z,69.87
2023-05-12T02:14:46.204Z,70.21
2023-05-12T02:17:13.246Z,70.31
2023-05-12T02:19:40.090Z,70.44
2023-05-12T02:22:07.288Z,71.01
2023-05-12T02:24:34.189Z,71.05
2023-05-12T02:27:01.846Z,71.19
2023-05-12T02:29:29.836Z,71.24
2023-05-12T02:31:56.647Z,71.23
2023-05-12T02:34:23.520Z,71.36
2023-05-12T02:36:50.346Z,71.26
2023-05-12T02:39:17.361Z,70.76
2023-05-12T02:41:44.083Z,70.55
2023-05-12T02:44:10.822Z,70.43
2023-05-12T02:46:37.976Z,70.46
2023-05-12T02:49:04.875Z,70.54
2023-05-12T02:51:32.048Z,70.27
2023-05-12T02:53:58.748Z,70.16
2023-05-12T02:56:26.030Z,70.36
2023-05-12T02:58:53.593Z,70.12
2023-05-12T03:01:20.440Z,69.90
2023-05-12T03:03:47.722Z,70.01
2023-05-12T03:06:14.807Z,69.81
2023-05-12T03:08:41.573Z,69.28
2023-05-12T03:11:08.496Z,69.01
2023-05-12T03:13:35.250Z,69.00
2023-05-12T03:16:02.101Z,68.65
2023-05-12T03:18:29.771Z,68.51
2023-05-12T03:20:57.055Z,68.69
2023-05-12T03:23:24.632Z,68.40
2023-05-12T03:25:51.677Z,68.46
2023-05-12T03:28:18.653Z,68.56
2023-05-12T03:30:45.758Z,68.49
2023-05-12T03:33:12.618Z,68.84
2023-05-12T03:35:39.857Z,68.53
2023-05-12T03:38:06.786Z,68.58
2023-05-12T03:40:33.692Z,67.87
2023-05-12T03:43:01.049Z,67.79
2023-05-12T03:45:27.868Z,67.45
2023-05-12T03:47:54.587Z,67.48
2023-05-12T03:50:22.344Z,67.16
2023-05-12T03:52:49.371Z,67.16
2023-05-12T03:55:16.332Z,67.24
2023-05-12T03:57:43.139Z,67.14
2023-05-12T04:00:11.702Z,67.02
2023-05-12T04:02:40.407Z,66.47
2023-05-12T04:05:08.694Z,66.11
2023-05-12T04:07:35.863Z,66.22
2023-05-12T04:10:03.527Z,65.64
2023-05-12T04:12:30.448Z,65.23
2023-05-12T04:14:58.143Z,64.69
2023-05-12T04:17:27.320Z,64.54
2023-05-12T04:19:54.541Z,64.14
2023-05-12T04:22:23.455Z,63.81
2023-05-12T04:24:52.170Z,63.34
2023-05-12T04:27:19.341Z,63.08
2023-05-12T04:29:46.201Z,63.23
2023-05-12T04:32:13.490Z,62.81
2023-05-12T04:34:40.328Z,61.89
2023-05-12T04:37:07.295Z,61.87
2023-05-12T04:39:35.784Z,61.06
2023-05-12T04:42:03.155Z,59.53
2023-05-12T04:44:33.011Z,58.70
2023-05-12T04:47:00.957Z,57.24
2023-05-12T04:49:27.837Z,55.75
2023-05-12T04:51:54.628Z,54.08
2023-05-12T04:54:21.451Z,52.14
2023-05-12T04:56:48.238Z,51.42
2023-05-12T04:59:16.368Z,50.25
2023-05-12T05:01:44.476Z,49.03
2023-05-12T05:04:11.595Z,47.70
2023-05-12T05:06:39.319Z,46.06
2023-05-12T05:09:06.613Z,45.18
2023-05-12T05:11:33.684Z,45.14
2023-05-12T05:14:00.717Z,44.79
2023-05-12T05:16:28.396Z,44.69
2023-05-12T05:18:58.174Z,44.43
2023-05-12T05:21:25.573Z,43.77
2023-05-12T05:23:53.197Z,43.92
2023-05-12T05:26:21.700Z,43.40
2023-05-12T05:28:50.613Z,43.56
2023-05-12T05:31:17.715Z,43.45
2023-05-12T05:33:44.877Z,43.52
2023-05-12T05:36:12.461Z,43.32
2023-05-12T05:38:40.403Z,42.95
2023-05-12T05:41:07.395Z,43.27
2023-05-12T05:43:35.092Z,42.53
2023-05-12T05:46:02.643Z,42.86
2023-05-12T05:48:29.457Z,42.68
2023-05-12T05:50:56.718Z,41.42
2023-05-12T05:53:24.923Z,40.36
2023-05-12T05:55:52.737Z,39.16
2023-05-12T05:58:19.523Z,38.08
2023-05-12T06:00:47.017Z,37.39
2023-05-12T06:03:13.926Z,36.68
2023-05-12T06:05:43.292Z,35.71
2023-05-12T06:08:13.438Z,35.22
2023-05-12T06:10:41.181Z,34.51
2023-05-12T06:13:08.059Z,34.57
2023-05-12T06:15:35.023Z,34.07
2023-05-12T06:18:01.865Z,32.91
2023-05-12T06:20:28.845Z,31.00
2023-05-12T06:22:55.804Z,30.32
2023-05-12T06:25:22.725Z,29.71
2023-05-12T06:27:53.065Z,29.33
2023-05-12T06:30:20.012Z,28.83
2023-05-12T06:32:47.096Z,28.52
2023-05-12T06:35:13.947Z,27.70
2023-05-12T06:37:40.734Z,26.30
2023-05-12T06:40:08.018Z,25.43
2023-05-12T06:42:34.817Z,25.31
2023-05-12T06:45:06.706Z,24.55
2023-05-12T06:47:33.745Z,23.65
2023-05-12T06:50:00.841Z,23.61
2023-05-12T06:52:27.793Z,23.89
2023-05-12T06:54:54.842Z,24.67
2023-05-12T06:57:21.941Z,24.83
2023-05-12T06:59:48.740Z,24.40
2023-05-12T07:02:17.039Z,23.85
2023-05-12T07:04:43.949Z,23.85
2023-05-12T07:07:10.870Z,23.78
2023-05-12T07:09:38.858Z,24.13
2023-05-12T07:12:06.394Z,24.34
2023-05-12T07:14:33.215Z,23.56
2023-05-12T07:17:00.008Z,23.75
2023-05-12T07:19:26.838Z,22.94
2023-05-12T07:21:54.165Z,23.52
2023-05-12T07:24:20.965Z,23.23
2023-05-12T07:26:48.316Z,22.26
2023-05-12T07:29:15.065Z,22.25
2023-05-12T07:31:42.145Z,21.61
2023-05-12T07:34:08.981Z,22.27
2023-05-12T07:36:35.877Z,22.09
2023-05-12T07:39:02.690Z,22.40
2023-05-12T07:41:29.576Z,22.22
2023-05-12T07:43:56.324Z,22.96
2023-05-12T07:46:23.285Z,22.26
2023-05-12T07:48:50.882Z,22.35
2023-05-12T07:51:17.669Z,22.13
2023-05-12T07:53:44.649Z,21.06
2023-05-12T07:56:11.438Z,21.31
2023-05-12T07:58:38.212Z,21.19
2023-05-12T08:01:06.867Z,20.89
2023-05-12T08:03:35.032Z,20.52
2023-05-12T08:06:03.553Z,20.63
2023-05-12T08:08:30.376Z,20.89
2023-05-12T08:10:57.353Z,20.85
2023-05-12T08:13:24.152Z,20.13
2023-05-12T08:15:51.232Z,20.01
2023-05-12T08:18:18.213Z,19.94
2023-05-12T08:20:45.105Z,19.49
2023-05-12T08:23:14.644Z,19.75
2023-05-12T08:25:44.454Z,20.48
2023-05-12T08:28:12.884Z,20.33
2023-05-12T08:30:40.132Z,20.50
2023-05-12T08:33:07.243Z,20.63
2023-05-12T08:35:35.540Z,20.64
2023-05-12T08:38:02.720Z,20.19
2023-05-12T08:40:32.006Z,21.04
2023-05-12T08:42:59.839Z,20.89
2023-05-12T08:45:29.616Z,20.18
2023-05-12T08:47:57.305Z,21.86
2023-05-12T08:50:28.068Z,21.58
2023-05-12T08:52:56.499Z,21.28
2023-05-12T08:55:26.411Z,21.37
2023-05-12T08:57:56.879Z,21.37
2023-05-12T09:00:25.967Z,21.03
2023-05-12T09:02:54.827Z,21.35
2023-05-12T09:05:23.330Z,21.62
2023-05-12T09:07:53.859Z,20.96
2023-05-12T09:10:34.400Z,20.01
2023-05-12T09:13:07.664Z,20.74
2023-05-12T09:15:39.562Z,21.33
2023-05-12T09:18:06.494Z,22.17
2023-05-12T09:20:33.888Z,21.62
2023-05-12T09:23:13.290Z,22.29
2023-05-12T09:25:40.306Z,22.30
2023-05-12T09:28:07.205Z,22.01
2023-05-12T09:30:38.111Z,21.53
2023-05-12T09:33:08.156Z,21.91
2023-05-12T09:35:45.667Z,21.84
2023-05-12T09:38:14.756Z,22.41
2023-05-12T09:40:43.118Z,22.60
2023-05-12T09:43:12.548Z,22.35
2023-05-12T09:45:42.642Z,23.46
2023-05-12T09:48:11.545Z,23.21
2023-05-12T09:50:48.373Z,23.39
2023-05-12T09:53:17.979Z,23.55
2023-05-12T09:55:46.345Z,23.09
2023-05-12T09:58:16.530Z,23.17
2023-05-12T10:01:12.691Z,24.02
2023-05-12T10:03:32.903Z,24.46
2023-05-12T10:06:02.741Z,24.86
2023-05-12T10:08:37.418Z,23.89
2023-05-12T10:11:06.421Z,24.23
2023-05-12T10:13:34.721Z,23.24
2023-05-12T10:16:02.760Z,23.80
2023-05-12T10:18:31.102Z,25.09
2023-05-12T10:20:59.271Z,25.02
2023-05-12T10:23:27.329Z,25.61
2023-05-12T10:25:58.686Z,26.70
2023-05-12T10:28:25.658Z,26.58
2023-05-12T10:30:53.841Z,26.58
2023-05-12T10:33:21.552Z,27.54
2023-05-12T10:35:49.598Z,27.46
2023-05-12T10:38:16.858Z,27.87
2023-05-12T10:41:01.270Z,28.09
2023-05-12T10:43:29.649Z,26.47
2023-05-12T10:46:13.107Z,27.85
2023-05-12T10:48:55.394Z,27.99
2023-05-12T10:51:26.628Z,28.21
2023-05-12T10:53:57.223Z,27.69
2023-05-12T10:56:28.752Z,27.48
2023-05-12T10:59:13.089Z,27.91
2023-05-12T11:01:57.817Z,27.95
2023-05-12T11:04:48.310Z,27.83
2023-05-12T11:07:17.927Z,27.05
2023-05-12T11:09:57.804Z,28.08
2023-05-12T11:12:27.888Z,26.46
2023-05-12T11:14:55.186Z,27.02
2023-05-12T11:17:22.314Z,26.48
2023-05-12T11:19:50.756Z,26.67
2023-05-12T11:22:20.349Z,25.69
2023-05-12T11:24:48.440Z,26.21
2023-05-12T11:27:17.277Z,26.62
2023-05-12T11:29:47.243Z,25.78
2023-05-12T11:32:15.806Z,26.74
2023-05-12T11:34:42.650Z,27.00
2023-05-12T11:37:09.441Z,28.41
2023-05-12T11:39:36.385Z,27.01
2023-05-12T11:42:12.255Z,27.03
2023-05-12T11:44:49.326Z,28.30
2023-05-12T11:47:17.297Z,27.41
2023-05-12T11:49:48.951Z,28.74
2023-05-12T11:52:17.032Z,28.41
2023-05-12T11:54:57.545Z,28.32
2023-05-12T11:57:26.871Z,28.09
2023-05-12T11:59:59.579Z,28.00
2023-05-12T12:02:26.636Z,27.75
2023-05-12T12:04:53.952Z,26.57
2023-05-12T12:07:36.544Z,26.82
2023-05-12T12:10:13.075Z,25.81
2023-05-12T12:12:41.578Z,26.61
2023-05-12T12:15:09.857Z,26.47
2023-05-12T12:17:36.911Z,26.41
2023-05-12T12:20:04.277Z,26.23
2023-05-12T12:22:34.699Z,25.14
2023-05-12T12:25:02.935Z,24.00
2023-05-12T12:27:30.058Z,23.62
2023-05-12T12:29:57.386Z,23.62
2023-05-12T12:32:24.295Z,23.26
2023-05-12T12:34:51.969Z,23.19
2023-05-12T12:37:18.889Z,23.79
2023-05-12T12:39:47.840Z,24.45
2023-05-12T12:42:15.588Z,23.61
2023-05-12T12:44:42.922Z,24.64
2023-05-12T12:47:09.782Z,24.32
2023-05-12T12:49:36.602Z,24.55
2023-05-12T12:52:03.683Z,24.19
2023-05-12T12:54:30.888Z,22.80
2023-05-12T12:56:58.768Z,22.17
2023-05-12T12:59:27.064Z,22.28
2023-05-12T13:01:54.045Z,21.53
2023-05-12T13:04:23.139Z,21.12
2023-05-12T13:06:50.074Z,21.38
2023-05-12T13:09:19.735Z,21.30
2023-05-12T13:11:47.785Z,20.43
2023-05-12T13:14:14.634Z,20.83
2023-05-12T13:16:41.850Z,21.75
2023-05-12T13:19:09.038Z,22.33
2023-05-12T13:21:36.525Z,22.30
2023-05-12T13:24:03.739Z,22.79
2023-05-12T13:26:30.621Z,22.97
2023-05-12T13:28:57.408Z,23.36
2023-05-12T13:31:24.236Z,23.69
2023-05-12T13:33:51.912Z,23.73
2023-05-12T13:36:18.680Z,24.82
2023-05-12T13:38:46.740Z,26.02
2023-05-12T13:41:13.743Z,26.14
2023-05-12T13:43:40.596Z,26.28
2023-05-12T13:46:07.483Z,26.60
2023-05-12T13:48:34.444Z,26.73
2023-05-12T13:51:01.209Z,27.13
2023-05-12T13:53:27.987Z,26.72
2023-05-12T13:55:54.741Z,26.79
2023-05-12T13:58:21.704Z,26.07
2023-05-12T14:00:48.729Z,26.72
2023-05-12T14:03:15.580Z,26.94
2023-05-12T14:05:42.359Z,26.92
2023-05-12T14:08:10.109Z,27.75
2023-05-12T14:10:37.005Z,28.22
2023-05-12T14:13:03.801Z,27.77
2023-05-12T14:15:47.257Z,28.27
2023-05-12T14:18:16.453Z,28.69
2023-05-12T14:20:44.265Z,28.92
2023-05-12T14:23:11.248Z,29.25
2023-05-12T14:25:38.065Z,29.22
2023-05-12T14:28:04.863Z,29.77
2023-05-12T14:30:31.842Z,29.24
2023-05-12T14:32:58.675Z,29.74
2023-05-12T14:35:27.861Z,28.93
2023-05-12T14:37:55.539Z,29.73
2023-05-12T14:40:23.490Z,29.54
2023-05-12T14:42:50.806Z,30.03
2023-05-12T14:45:17.930Z,29.20
2023-05-12T14:47:45.232Z,29.14
2023-05-12T14:50:12.527Z,29.99
2023-05-12T14:52:39.569Z,30.20
2023-05-12T14:55:11.783Z,28.42
2023-05-12T14:57:39.626Z,28.68
2023-05-12T15:00:08.800Z,28.92
2023-05-12T15:02:35.917Z,28.63
2023-05-12T15:05:03.827Z,28.79
2023-05-12T15:07:30.818Z,29.22
2023-05-12T15:09:57.634Z,29.59
2023-05-12T15:12:24.586Z,29.48
2023-05-12T15:14:51.574Z,29.83
2023-05-12T15:17:18.503Z,29.25
2023-05-12T15:19:45.322Z,29.43
2023-05-12T15:22:12.375Z,29.65
2023-05-12T15:24:39.498Z,29.50
2023-05-12T15:27:07.910Z,29.47
2023-05-12T15:29:38.993Z,29.89
2023-05-12T15:32:06.591Z,29.28
2023-05-12T15:34:35.285Z,29.09
2023-05-12T15:37:02.034Z,30.01
2023-05-12T15:39:28.817Z,30.01
2023-05-12T15:41:55.827Z,29.87
2023-05-12T15:44:22.668Z,29.29
2023-05-12T15:46:49.528Z,30.01
2023-05-12T15:49:16.682Z,30.15
2023-05-12T15:51:43.483Z,29.82
2023-05-12T15:54:11.512Z,30.13
2023-05-12T15:56:38.931Z,30.66
2023-05-12T15:59:05.966Z,30.11
2023-05-12T16:01:33.067Z,29.81
2023-05-12T16:04:00.142Z,30.16
2023-05-12T16:06:27.174Z,30.37
2023-05-12T16:08:54.376Z,30.26
2023-05-12T16:11:21.482Z,29.94
2023-05-12T16:13:48.290Z,29.99
2023-05-12T16:16:15.143Z,30.63
2023-05-12T16:18:42.996Z,30.47
2023-05-12T16:21:10.052Z,30.84
2023-05-12T16:23:36.818Z,31.08
2023-05-12T16:26:03.705Z,31.81
2023-05-12T16:28:31.995Z,32.15
2023-05-12T16:31:01.457Z,31.50
2023-05-12T16:33:30.820Z,31.05
2023-05-12T16:35:57.761Z,31.63
2023-05-12T16:38:24.780Z,31.77
2023-05-12T16:40:51.484Z,32.20
2023-05-12T16:43:19.058Z,32.69
2023-05-12T16:45:45.913Z,32.09
2023-05-12T16:48:13.526Z,32.33
2023-05-12T16:50:40.251Z,32.08
2023-05-12T16:53:06.976Z,32.67
2023-05-12T16:55:33.772Z,32.75
2023-05-12T16:58:00.562Z,32.59
2023-05-12T17:00:27.614Z,33.00
2023-05-12T17:02:55.209Z,32.80
2023-05-12T17:05:22.313Z,33.33
2023-05-12T17:07:49.396Z,33.30
2023-05-12T17:10:16.291Z,33.40
2023-05-12T17:12:43.059Z,33.82
2023-05-12T17:15:11.547Z,33.66
2023-05-12T17:17:38.411Z,33.61
2023-05-12T17:20:06.165Z,33.86
2023-05-12T17:22:35.100Z,34.18
2023-05-12T17:25:01.835Z,33.87
2023-05-12T17:27:33.340Z,34.17
2023-05-12T17:30:00.262Z,34.59
2023-05-12T17:32:27.091Z,34.73
2023-05-12T17:34:54.371Z,35.13
2023-05-12T17:37:28.734Z,34.97
2023-05-12T17:39:56.247Z,35.54
2023-05-12T17:42:23.219Z,35.64
2023-05-12T17:44:49.956Z,35.72
2023-05-12T17:47:16.871Z,36.00
2023-05-12T17:49:43.784Z,35.90
2023-05-12T17:52:11.019Z,36.08
2023-05-12T17:54:37.954Z,36.29
2023-05-12T17:57:05.106Z,36.48
2023-05-12T17:59:32.358Z,36.57
2023-05-12T18:01:59.119Z,36.65
2023-05-12T18:04:25.983Z,36.74
2023-05-12T18:06:53.028Z,36.89
2023-05-12T18:09:20.157Z,37.12
2023-05-12T18:11:48.430Z,36.98
2023-05-12T18:14:16.239Z,37.02
2023-05-12T18:16:43.258Z,37.12
2023-05-12T18:19:10.662Z,37.26
2023-05-12T18:21:37.653Z,37.36
2023-05-12T18:24:04.881Z,37.42
2023-05-12T18:26:31.676Z,37.62
2023-05-12T18:28:59.485Z,37.50
2023-05-12T18:31:26.937Z,37.65
2023-05-12T18:33:53.774Z,37.93
2023-05-12T18:36:21.266Z,37.99
2023-05-12T18:38:48.134Z,37.81
2023-05-12T18:41:15.289Z,38.23
2023-05-12T18:43:44.133Z,38.18
2023-05-12T18:46:11.757Z,38.47
2023-05-12T18:48:39.808Z,38.61
2023-05-12T18:51:08.129Z,38.58
2023-05-12T18:53:34.859Z,38.79
2023-05-12T18:56:01.618Z,38.87
2023-05-12T18:58:28.351Z,39.23
2023-05-12T19:00:55.096Z,39.23
2023-05-12T19:03:21.900Z,39.34
2023-05-12T19:05:49.172Z,39.67
2023-05-12T19:08:17.765Z,39.83
2023-05-12T19:10:44.503Z,39.92
2023-05-12T19:13:11.359Z,40.23
2023-05-12T19:15:38.231Z,40.29
2023-05-12T19:18:05.280Z,40.62
2023-05-12T19:20:33.210Z,40.80
2023-05-12T19:23:00.080Z,40.85
2023-05-12T19:25:26.872Z,41.14
2023-05-12T19:27:53.642Z,41.18
2023-05-12T19:30:20.746Z,41.28
2023-05-12T19:32:47.725Z,41.43
2023-05-12T19:35:15.011Z,41.90
2023-05-12T19:37:41.839Z,41.94
2023-05-12T19:40:09.247Z,42.29
2023-05-12T19:42:53.040Z,42.38
2023-05-12T19:45:20.429Z,42.47
2023-05-12T19:47:47.500Z,42.94
2023-05-12T19:50:14.677Z,43.05
2023-05-12T19:52:41.700Z,43.28
2023-05-12T19:55:08.906Z,43.47
2023-05-12T19:57:36.435Z,43.58
2023-05-12T20:00:03.841Z,43.67
2023-05-12T20:02:39.989Z,43.94
2023-05-12T20:05:07.109Z,43.99
2023-05-12T20:07:34.086Z,44.02
2023-05-12T20:10:02.094Z,44.21
2023-05-12T20:12:29.287Z,44.29
2023-05-12T20:14:56.986Z,44.41
2023-05-12T20:17:23.927Z,44.39
2023-05-12T20:19:50.723Z,44.52
2023-05-12T20:22:17.531Z,44.34
2023-05-12T20:24:44.758Z,44.57
2023-05-12T20:27:12.208Z,44.75
2023-05-12T20:29:38.975Z,44.67
2023-05-12T20:32:06.708Z,44.83
2023-05-12T20:34:33.459Z,45.17
2023-05-12T20:37:00.319Z,44.74
2023-05-12T20:39:27.029Z,45.01
2023-05-12T20:41:55.804Z,45.10
2023-05-12T20:44:23.342Z,45.16
2023-05-12T20:47:05.607Z,45.17
2023-05-12T20:49:32.437Z,45.20
2023-05-12T20:51:59.153Z,45.27
2023-05-12T20:54:26.431Z,45.63
2023-05-12T20:56:53.202Z,45.53
2023-05-12T20:59:20.131Z,45.47
2023-05-12T21:01:47.013Z,45.33
2023-05-12T21:04:13.820Z,45.45
2023-05-12T21:06:40.837Z,45.62
2023-05-12T21:09:07.594Z,45.59
2023-05-12T21:11:34.420Z,46.07
2023-05-12T21:14:01.493Z,45.83
2023-05-12T21:16:28.566Z,45.76
2023-05-12T21:18:55.403Z,45.63
2023-05-12T21:21:22.231Z,45.80
2023-05-12T21:23:48.992Z,45.88
2023-05-12T21:26:16.108Z,45.96
2023-05-12T21:28:42.875Z,46.05
2023-05-12T21:31:09.663Z,45.99
2023-05-12T21:33:36.472Z,46.28
2023-05-12T21:36:03.737Z,46.19
2023-05-12T21:38:31.978Z,46.40
2023-05-12T21:40:59.428Z,46.75
2023-05-12T21:43:26.208Z,46.79
2023-05-12T21:45:52.981Z,46.63
2023-05-12T21:48:19.773Z,46.95
2023-05-12T21:50:59.079Z,46.97
2023-05-12T21:53:26.223Z,47.04
2023-05-12T21:55:53.207Z,46.98
2023-05-12T21:58:20.029Z,47.00
2023-05-12T22:00:46.783Z,47.07
2023-05-12T22:03:13.682Z,47.42
2023-05-12T22:05:41.289Z,47.39
2023-05-12T22:08:07.995Z,47.71
2023-05-12T22:10:34.757Z,47.86
2023-05-12T22:13:01.510Z,48.12
2023-05-12T22:15:28.242Z,47.99
2023-05-12T22:17:55.212Z,47.84
2023-05-12T22:20:23.317Z,48.05
2023-05-12T22:22:50.200Z,47.95
2023-05-12T22:25:16.974Z,48.68
2023-05-12T22:27:43.918Z,48.66
2023-05-12T22:30:11.400Z,49.33
2023-05-12T22:32:38.172Z,49.37
2023-05-12T22:35:05.460Z,49.18
2023-05-12T22:37:32.504Z,48.93
2023-05-12T22:39:59.206Z,49.01
2023-05-12T22:42:25.924Z,48.96
2023-05-12T22:44:52.672Z,48.95
2023-05-12T22:47:19.741Z,49.31
2023-05-12T22:49:46.484Z,48.88
2023-05-12T22:52:13.234Z,48.90
2023-05-12T22:54:39.973Z,49.02
2023-05-12T22:57:06.687Z,49.31
2023-05-12T22:59:33.487Z,49.50
2023-05-12T23:02:00.201Z,49.51
2023-05-12T23:04:27.133Z,49.60
2023-05-12T23:06:53.889Z,49.55
2023-05-12T23:09:20.693Z,50.96
2023-05-12T23:11:47.400Z,51.64
2023-05-12T23:14:14.187Z,51.71
2023-05-12T23:16:41.142Z,51.79
2023-05-12T23:19:08.110Z,52.12
2023-05-12T23:21:34.880Z,52.46
2023-05-12T23:24:01.634Z,53.30
2023-05-12T23:26:28.424Z,53.95
2023-05-12T23:28:55.194Z,54.23
2023-05-12T23:31:21.966Z,54.62
2023-05-12T23:33:48.893Z,54.78
2023-05-12T23:36:15.911Z,55.69
2023-05-12T23:38:42.916Z,56.33
2023-05-12T23:41:09.669Z,56.12
2023-05-12T23:43:36.560Z,56.80
2023-05-12T23:46:03.413Z,57.15
2023-05-12T23:48:30.314Z,57.53
2023-05-12T23:50:57.208Z,57.96
2023-05-12T23:53:23.964Z,57.95
2023-05-12T23:55:50.765Z,58.47
2023-05-12T23:58:17.472Z,58.66
